createdAt,value
2023-08-29T13:54:44.466Z,24.53
2023-08-29T13:57:12.037Z,24.57
2023-08-29T13:59:40.412Z,24.65
2023-08-29T14:02:10.181Z,24.83
2023-08-29T14:04:37.534Z,25.12
2023-08-29T14:07:05.057Z,25.46
2023-08-29T14:09:32.297Z,25.73
2023-08-29T14:11:59.515Z,25.82
2023-08-29T14:14:26.737Z,25.68
2023-08-29T14:16:54.273Z,25.44
2023-08-29T14:19:21.914Z,25.16
2023-08-29T14:21:49.581Z,24.87
2023-08-29T14:24:16.879Z,24.71
2023-08-29T14:26:44.332Z,25.02
2023-08-29T14:29:11.495Z,25.31
2023-08-29T14:31:38.769Z,25.27
2023-08-29T14:34:07.294Z,25.26
2023-08-29T14:36:34.579Z,25.25
2023-08-29T14:39:02.164Z,25.18
2023-08-29T14:41:29.569Z,25.13
2023-08-29T14:43:57.129Z,25.31
2023-08-29T14:46:24.501Z,25.40
2023-08-29T14:48:51.905Z,25.70
2023-08-29T14:51:19.097Z,25.86
2023-08-29T14:53:46.475Z,25.93
2023-08-29T14:56:13.870Z,25.99
2023-08-29T14:58:45.547Z,25.99
2023-08-29T15:01:12.867Z,25.76
2023-08-29T15:03:40.958Z,25.54
2023-08-29T15:06:12.284Z,25.28
2023-08-29T15:08:39.646Z,25.16
2023-08-29T15:11:07.411Z,25.16
2023-08-29T15:13:35.389Z,24.98
2023-08-29T15:16:06.479Z,24.84
2023-08-29T15:18:34.260Z,24.60
2023-08-29T15:21:01.638Z,24.35
2023-08-29T15:23:32.139Z,24.19
2023-08-29T15:25:59.958Z,23.89
2023-08-29T15:28:30.454Z,23.90
2023-08-29T15:31:02.796Z,23.89
2023-08-29T15:33:30.439Z,23.83
2023-08-29T15:35:58.715Z,23.76
2023-08-29T15:38:26.283Z,23.66
2023-08-29T15:40:56.221Z,23.53
2023-08-29T15:43:27.247Z,23.43
2023-08-29T15:45:56.540Z,23.33
2023-08-29T15:48:24.217Z,23.25
2023-08-29T15:50:55.702Z,23.06
2023-08-29T15:53:23.315Z,23.10
2023-08-29T15:55:50.917Z,23.03
2023-08-29T15:58:19.201Z,22.89
2023-08-29T16:00:46.550Z,22.72
2023-08-29T16:03:13.858Z,22.75
2023-08-29T16:05:41.193Z,22.63
2023-08-29T16:08:10.765Z,22.48
2023-08-29T16:10:40.749Z,22.58
2023-08-29T16:13:08.722Z,22.61
2023-08-29T16:15:36.349Z,22.52
2023-08-29T16:18:04.037Z,22.60
2023-08-29T16:20:31.786Z,22.35
2023-08-29T16:22:59.066Z,22.14
2023-08-29T16:25:28.328Z,21.91
2023-08-29T16:27:55.963Z,21.68
2023-08-29T16:30:23.857Z,21.47
2023-08-29T16:32:51.157Z,21.34
2023-08-29T16:35:18.711Z,21.20
2023-08-29T16:37:45.968Z,21.10
2023-08-29T16:40:13.360Z,20.98
2023-08-29T16:42:43.778Z,20.89
2023-08-29T16:45:11.915Z,20.77
2023-08-29T16:47:41.114Z,20.58
2023-08-29T16:50:08.902Z,20.37
2023-08-29T16:52:36.190Z,20.24
2023-08-29T16:55:04.460Z,20.18
2023-08-29T16:57:31.664Z,20.12
2023-08-29T17:00:00.673Z,20.06
2023-08-29T17:02:28.431Z,19.97
2023-08-29T17:04:57.091Z,19.87
2023-08-29T17:07:25.184Z,19.78
2023-08-29T17:09:53.094Z,19.63
2023-08-29T17:12:23.981Z,19.53
2023-08-29T17:14:52.332Z,19.30
2023-08-29T17:17:20.937Z,19.34
2023-08-29T17:19:48.222Z,19.24
2023-08-29T17:22:17.284Z,19.18
2023-08-29T17:24:45.857Z,19.09
2023-08-29T17:27:13.456Z,18.89
2023-08-29T17:29:40.863Z,18.98
2023-08-29T17:32:08.833Z,18.96
2023-08-29T17:34:36.752Z,18.93
2023-08-29T17:37:04.740Z,18.88
2023-08-29T17:39:32.863Z,18.82
2023-08-29T17:42:00.166Z,18.71
2023-08-29T17:44:28.004Z,18.70
2023-08-29T17:46:55.381Z,18.53
2023-08-29T17:49:22.835Z,18.65
2023-08-29T17:51:50.155Z,18.63
2023-08-29T17:54:18.212Z,18.60
2023-08-29T17:56:46.676Z,18.61
2023-08-29T17:59:13.983Z,18.61
2023-08-29T18:01:41.906Z,18.43
2023-08-29T18:04:10.206Z,18.56
2023-08-29T18:06:38.072Z,18.50
2023-08-29T18:09:05.733Z,18.50
2023-08-29T18:11:34.077Z,18.47
2023-08-29T18:14:01.522Z,18.43
2023-08-29T18:16:28.992Z,18.38
2023-08-29T18:19:00.490Z,18.34
2023-08-29T18:21:28.208Z,18.26
2023-08-29T18:23:56.110Z,18.21
2023-08-29T18:26:23.421Z,18.19
2023-08-29T18:28:50.623Z,18.19
2023-08-29T18:31:18.094Z,18.13
2023-08-29T18:33:45.312Z,18.16
2023-08-29T18:36:13.011Z,18.19
2023-08-29T18:38:40.356Z,18.18
2023-08-29T18:41:07.737Z,18.09
2023-08-29T18:43:34.972Z,18.20
2023-08-29T18:46:02.560Z,18.28
2023-08-29T18:48:30.834Z,18.26
2023-08-29T18:50:58.180Z,18.37
2023-08-29T18:53:25.742Z,18.44
2023-08-29T18:55:53.083Z,18.27
2023-08-29T18:58:20.308Z,18.49
2023-08-29T19:00:47.845Z,18.52
2023-08-29T19:03:15.338Z,18.46
